createdAt,value
2023-04-25T00:00:22.323Z,92159.00
2023-04-25T00:01:22.309Z,92155.00
2023-04-25T00:02:22.377Z,92155.00
2023-04-25T00:03:22.621Z,92157.00
2023-04-25T00:04:22.516Z,92161.00
2023-04-25T00:05:22.339Z,92161.00
2023-04-25T00:06:22.288Z,92159.00
2023-04-25T00:07:22.288Z,92161.00
2023-04-25T00:08:22.283Z,92159.00
2023-04-25T00:09:22.281Z,92159.00
2023-04-25T00:10:22.290Z,92159.00
2023-04-25T00:11:22.270Z,92159.00
2023-04-25T00:12:22.275Z,92159.00
2023-04-25T00:13:22.349Z,92157.00
2023-04-25T00:14:22.269Z,92155.00
2023-04-25T00:15:22.301Z,92157.00
2023-04-25T00:16:22.330Z,92153.00
2023-04-25T00:17:22.280Z,92153.00
2023-04-25T00:18:22.236Z,92155.00
2023-04-25T00:19:22.240Z,92155.00
2023-04-25T00:20:22.233Z,92153.00
2023-04-25T00:21:22.221Z,92151.00
2023-04-25T00:22:22.213Z,92149.00
2023-04-25T00:23:22.208Z,92145.00
2023-04-25T00:24:22.231Z,92145.00
2023-04-25T00:25:22.217Z,92147.00
2023-04-25T00:26:22.223Z,92145.00
2023-04-25T00:27:22.275Z,92143.00
2023-04-25T00:28:22.309Z,92145.00
2023-04-25T00:29:22.355Z,92149.00
2023-04-25T00:30:22.380Z,92147.00
2023-04-25T00:31:22.481Z,92149.00
2023-04-25T00:32:22.489Z,92149.00
2023-04-25T00:33:22.523Z,92149.00
2023-04-25T00:34:22.605Z,92147.00
2023-04-25T00:35:22.629Z,92143.00
2023-04-25T00:36:22.676Z,92143.00
2023-04-25T00:37:22.744Z,92143.00
2023-04-25T00:38:22.780Z,92139.00
2023-04-25T00:39:22.824Z,92139.00
2023-04-25T00:40:22.879Z,92141.00
2023-04-25T00:41:22.914Z,92139.00
2023-04-25T00:42:22.954Z,92141.00
2023-04-25T00:43:23.010Z,92139.00
2023-04-25T00:44:23.033Z,92141.00
2023-04-25T00:45:23.087Z,92139.00
2023-04-25T00:46:23.174Z,92141.00
2023-04-25T00:47:23.223Z,92137.00
2023-04-25T00:48:23.225Z,92137.00
2023-04-25T00:49:23.264Z,92139.00
2023-04-25T00:50:23.327Z,92139.00
2023-04-25T00:51:23.350Z,92143.00
2023-04-25T00:52:23.396Z,92143.00
2023-04-25T00:53:23.457Z,92141.00
2023-04-25T00:54:23.499Z,92139.00
2023-04-25T00:55:23.557Z,92137.00
2023-04-25T00:56:23.598Z,92139.00
2023-04-25T00:57:23.644Z,92135.00
2023-04-25T00:58:23.720Z,92137.00
2023-04-25T00:59:23.741Z,92143.00
2023-04-25T01:00:23.810Z,92145.00
2023-04-25T01:01:23.872Z,92143.00
2023-04-25T01:02:24.004Z,92147.00
2023-04-25T01:03:24.099Z,92147.00
2023-04-25T01:04:24.064Z,92147.00
2023-04-25T01:05:24.006Z,92149.00
2023-04-25T01:06:24.060Z,92151.00
2023-04-25T01:07:24.107Z,92151.00
2023-04-25T01:08:24.149Z,92155.00
2023-04-25T01:09:24.198Z,92151.00
2023-04-25T01:10:24.233Z,92155.00
2023-04-25T01:11:24.295Z,92157.00
2023-04-25T01:12:24.326Z,92159.00
2023-04-25T01:13:24.384Z,92159.00
2023-04-25T01:14:24.416Z,92155.00
2023-04-25T01:15:24.466Z,92157.00
2023-04-25T01:16:24.565Z,92159.00
2023-04-25T01:17:24.571Z,92157.00
2023-04-25T01:18:24.598Z,92161.00
2023-04-25T01:19:24.653Z,92159.00
2023-04-25T01:20:24.701Z,92161.00
2023-04-25T01:21:24.738Z,92163.00
2023-04-25T01:22:24.793Z,92163.00
2023-04-25T01:23:24.888Z,92163.00
2023-04-25T01:24:24.860Z,92161.00
2023-04-25T01:25:24.929Z,92163.00
2023-04-25T01:26:25.089Z,92165.00
2023-04-25T01:27:25.009Z,92165.00
2023-04-25T01:28:25.027Z,92163.00
2023-04-25T01:29:25.093Z,92163.00
2023-04-25T01:30:25.135Z,92161.00
2023-04-25T01:31:25.180Z,92161.00
2023-04-25T01:32:25.233Z,92159.00
2023-04-25T01:33:25.258Z,92157.00
2023-04-25T01:34:25.313Z,92157.00
2023-04-25T01:35:25.363Z,92159.00
2023-04-25T01:36:25.388Z,92155.00
2023-04-25T01:37:25.435Z,92153.00
2023-04-25T01:38:25.472Z,92153.00
2023-04-25T01:39:25.522Z,92153.00
2023-04-25T01:40:25.565Z,92151.00
2023-04-25T01:41:25.589Z,92151.00
2023-04-25T01:42:25.628Z,92151.00
2023-04-25T01:43:25.662Z,92151.00
2023-04-25T01:44:25.707Z,92151.00
2023-04-25T01:45:25.746Z,92153.00
2023-04-25T01:46:25.843Z,92153.00
2023-04-25T01:47:25.862Z,92153.00
2023-04-25T01:48:25.879Z,92153.00
2023-04-25T01:49:25.944Z,92153.00
2023-04-25T01:50:25.983Z,92153.00
2023-04-25T01:51:26.008Z,92153.00
2023-04-25T01:52:26.064Z,92153.00
2023-04-25T01:53:26.095Z,92153.00
2023-04-25T01:54:26.149Z,92151.00
2023-04-25T01:55:26.186Z,92149.00
2023-04-25T01:56:26.217Z,92149.00
2023-04-25T01:57:26.274Z,92147.00
2023-04-25T01:58:26.318Z,92147.00
2023-04-25T01:59:26.385Z,92147.00
2023-04-25T02:00:26.404Z,92145.00
2023-04-25T02:01:26.481Z,92147.00
2023-04-25T02:02:26.620Z,92147.00
2023-04-25T02:03:26.664Z,92147.00
2023-04-25T02:04:26.706Z,92147.00
2023-04-25T02:05:26.642Z,92151.00
2023-04-25T02:06:26.702Z,92153.00
2023-04-25T02:07:26.734Z,92151.00
2023-04-25T02:08:26.780Z,92155.00
2023-04-25T02:09:26.849Z,92155.00
2023-04-25T02:10:26.900Z,92155.00
2023-04-25T02:11:26.938Z,92155.00
2023-04-25T02:12:26.969Z,92155.00
2023-04-25T02:13:27.022Z,92155.00
2023-04-25T02:14:27.078Z,92157.00
2023-04-25T02:15:27.119Z,92159.00
2023-04-25T02:16:27.239Z,92159.00
2023-04-25T02:17:27.222Z,92155.00
2023-04-25T02:18:27.349Z,92157.00
2023-04-25T02:19:27.317Z,92159.00
2023-04-25T02:20:27.370Z,92157.00
2023-04-25T02:21:27.407Z,92157.00
2023-04-25T02:22:27.457Z,92157.00
2023-04-25T02:23:27.520Z,92157.00
2023-04-25T02:24:27.598Z,92157.00
2023-04-25T02:25:27.605Z,92159.00
2023-04-25T02:26:27.657Z,92159.00
2023-04-25T02:27:27.696Z,92155.00
2023-04-25T02:28:27.780Z,92155.00
2023-04-25T02:29:27.814Z,92155.00
2023-04-25T02:30:27.850Z,92159.00
2023-04-25T02:31:27.972Z,92155.00
2023-04-25T02:32:28.004Z,92155.00
2023-04-25T02:33:28.003Z,92155.00
2023-04-25T02:34:28.052Z,92153.00
2023-04-25T02:35:28.111Z,92155.00
2023-04-25T02:36:28.153Z,92149.00
2023-04-25T02:37:28.190Z,92151.00
2023-04-25T02:38:28.238Z,92149.00
2023-04-25T02:39:28.373Z,92149.00
2023-04-25T02:40:28.339Z,92151.00
2023-04-25T02:41:28.390Z,92149.00
2023-04-25T02:42:28.431Z,92153.00
2023-04-25T02:43:28.471Z,92153.00
2023-04-25T02:44:28.526Z,92145.00
2023-04-25T02:45:28.559Z,92149.00
2023-04-25T02:46:38.293Z,92147.00
2023-04-25T02:47:29.677Z,92151.00
2023-04-25T02:48:28.606Z,92151.00
2023-04-25T02:49:28.601Z,92149.00
2023-04-25T02:50:28.590Z,92149.00
2023-04-25T02:51:28.599Z,92149.00
2023-04-25T02:52:28.613Z,92151.00
2023-04-25T02:53:28.602Z,92149.00
2023-04-25T02:54:28.600Z,92149.00
2023-04-25T02:55:28.619Z,92149.00
2023-04-25T02:56:28.619Z,92149.00
2023-04-25T02:57:28.603Z,92147.00
2023-04-25T02:58:28.627Z,92143.00
2023-04-25T02:59:28.634Z,92145.00
2023-04-25T03:00:28.668Z,92145.00
2023-04-25T03:01:28.708Z,92143.00
2023-04-25T03:02:28.781Z,92139.00
2023-04-25T03:03:28.848Z,92139.00
2023-04-25T03:04:28.873Z,92135.00
2023-04-25T03:05:28.871Z,92131.00
2023-04-25T03:06:28.925Z,92131.00
2023-04-25T03:07:28.963Z,92131.00
2023-04-25T03:08:29.011Z,92131.00
2023-04-25T03:09:29.058Z,92137.00
2023-04-25T03:10:29.103Z,92137.00
2023-04-25T03:11:29.144Z,92137.00
2023-04-25T03:12:29.190Z,92137.00
2023-04-25T03:13:29.238Z,92137.00
2023-04-25T03:14:29.279Z,92129.00
2023-04-25T03:15:29.328Z,92131.00
2023-04-25T03:16:29.450Z,92129.00
2023-04-25T03:17:29.426Z,92129.00
2023-04-25T03:18:29.452Z,92127.00
2023-04-25T03:19:29.509Z,92127.00
2023-04-25T03:20:29.545Z,92127.00
2023-04-25T03:21:29.607Z,92127.00
2023-04-25T03:22:29.633Z,92129.00
2023-04-25T03:23:29.681Z,92131.00
2023-04-25T03:24:29.723Z,92133.00
2023-04-25T03:25:29.781Z,92133.00
2023-04-25T03:26:29.805Z,92133.00
2023-04-25T03:27:29.847Z,92135.00
2023-04-25T03:28:29.892Z,92135.00
2023-04-25T03:29:29.931Z,92135.00
2023-04-25T03:30:29.985Z,92137.00
2023-04-25T03:31:30.105Z,92135.00
2023-04-25T03:32:30.086Z,92135.00
2023-04-25T03:33:30.113Z,92131.00
2023-04-25T03:34:30.148Z,92129.00
2023-04-25T03:35:30.207Z,92127.00
2023-04-25T03:36:30.244Z,92123.00
2023-04-25T03:37:30.292Z,92125.00
2023-04-25T03:38:30.335Z,92129.00
2023-04-25T03:39:30.395Z,92131.00
2023-04-25T03:40:30.416Z,92131.00
2023-04-25T03:41:30.470Z,92135.00
2023-04-25T03:42:30.512Z,92133.00
2023-04-25T03:43:30.567Z,92133.00
2023-04-25T03:44:30.641Z,92131.00
2023-04-25T03:45:30.654Z,92131.00
2023-04-25T03:46:30.801Z,92127.00
2023-04-25T03:47:30.761Z,92125.00
2023-04-25T03:48:30.798Z,92123.00
2023-04-25T03:49:30.848Z,92121.00
2023-04-25T03:50:30.899Z,92121.00
2023-04-25T03:51:30.942Z,92123.00
2023-04-25T03:52:30.983Z,92121.00
2023-04-25T03:53:31.022Z,92121.00
2023-04-25T03:54:31.074Z,92123.00
2023-04-25T03:55:31.109Z,92127.00
2023-04-25T03:56:31.175Z,92129.00
2023-04-25T03:57:31.226Z,92129.00
2023-04-25T03:58:31.270Z,92127.00
2023-04-25T03:59:31.326Z,92125.00
2023-04-25T04:00:31.359Z,92125.00
2023-04-25T04:01:31.400Z,92123.00
2023-04-25T04:02:31.592Z,92121.00
2023-04-25T04:03:31.597Z,92120.00
2023-04-25T04:04:31.685Z,92118.00
2023-04-25T04:05:31.600Z,92116.00
2023-04-25T04:06:31.645Z,92120.00
2023-04-25T04:07:31.688Z,92118.00
2023-04-25T04:08:31.719Z,92114.00
2023-04-25T04:09:31.787Z,92112.00
2023-04-25T04:10:31.828Z,92112.00
2023-04-25T04:11:31.867Z,92118.00
2023-04-25T04:12:31.912Z,92118.00
2023-04-25T04:13:31.963Z,92114.00
2023-04-25T04:14:32.006Z,92114.00
2023-04-25T04:15:32.056Z,92112.00
2023-04-25T04:16:34.404Z,92110.00
2023-04-25T04:17:32.359Z,92116.00
2023-04-25T04:18:32.360Z,92114.00
2023-04-25T04:19:32.380Z,92112.00
2023-04-25T04:20:32.427Z,92112.00
2023-04-25T04:21:32.476Z,92112.00
2023-04-25T04:22:32.523Z,92110.00
2023-04-25T04:23:32.565Z,92108.00
2023-04-25T04:24:32.611Z,92106.00
2023-04-25T04:25:32.645Z,92104.00
2023-04-25T04:26:32.685Z,92102.00
2023-04-25T04:27:32.742Z,92100.00
2023-04-25T04:28:32.781Z,92098.00
2023-04-25T04:29:32.832Z,92096.00
2023-04-25T04:30:32.879Z,92092.00
2023-04-25T04:31:32.962Z,92092.00
2023-04-25T04:32:33.067Z,92092.00
2023-04-25T04:33:33.024Z,92090.00
2023-04-25T04:34:33.052Z,92088.00
2023-04-25T04:35:33.108Z,92088.00
2023-04-25T04:36:33.140Z,92094.00
2023-04-25T04:37:33.182Z,92094.00
2023-04-25T04:38:33.225Z,92098.00
2023-04-25T04:39:33.282Z,92102.00
2023-04-25T04:40:33.344Z,92104.00
2023-04-25T04:41:33.414Z,92106.00
2023-04-25T04:42:33.425Z,92110.00
2023-04-25T04:43:33.484Z,92110.00
2023-04-25T04:44:33.528Z,92110.00
2023-04-25T04:45:33.563Z,92110.00
2023-04-25T04:46:33.658Z,92108.00
2023-04-25T04:47:33.735Z,92110.00
2023-04-25T04:48:33.707Z,92110.00
2023-04-25T04:49:34.535Z,92112.00
2023-04-25T04:50:33.853Z,92110.00
2023-04-25T04:51:33.833Z,92116.00
2023-04-25T04:52:33.887Z,92114.00
2023-04-25T04:53:33.935Z,92114.00
2023-04-25T04:54:33.986Z,92114.00
2023-04-25T04:55:34.043Z,92112.00
2023-04-25T04:56:34.078Z,92110.00
2023-04-25T04:57:34.126Z,92108.00
2023-04-25T04:58:34.174Z,92102.00
2023-04-25T04:59:34.217Z,92102.00
2023-04-25T05:00:34.314Z,92102.00
2023-04-25T05:01:34.320Z,92108.00
2023-04-25T05:02:34.516Z,92112.00
2023-04-25T05:03:34.585Z,92112.00
2023-04-25T05:04:34.503Z,92112.00
2023-04-25T05:05:34.519Z,92108.00
2023-04-25T05:06:34.573Z,92104.00
2023-04-25T05:07:34.679Z,92100.00
2023-04-25T05:08:34.673Z,92100.00
2023-04-25T05:09:34.720Z,92100.00
2023-04-25T05:10:34.773Z,92104.00
2023-04-25T05:11:34.830Z,92106.00
2023-04-25T05:12:36.873Z,92104.00
2023-04-25T05:13:34.994Z,92100.00
2023-04-25T05:14:35.006Z,92096.00
2023-04-25T05:15:35.049Z,92090.00
2023-04-25T05:16:35.148Z,92090.00
2023-04-25T05:17:35.170Z,92092.00
2023-04-25T05:18:35.187Z,92096.00
2023-04-25T05:19:35.233Z,92094.00
2023-04-25T05:20:35.282Z,92098.00
2023-04-25T05:21:35.355Z,92092.00
2023-04-25T05:22:35.375Z,92096.00
2023-04-25T05:23:35.424Z,92096.00
2023-04-25T05:24:35.480Z,92096.00
2023-04-25T05:25:35.522Z,92094.00
2023-04-25T05:26:35.560Z,92088.00
2023-04-25T05:27:35.631Z,92086.00
2023-04-25T05:28:35.667Z,92080.00
2023-04-25T05:29:37.576Z,92080.00
2023-04-25T05:30:35.781Z,92082.00
2023-04-25T05:31:35.831Z,92086.00
2023-04-25T05:32:35.892Z,92084.00
2023-04-25T05:33:35.912Z,92084.00
2023-04-25T05:34:35.959Z,92084.00
2023-04-25T05:35:36.004Z,92084.00
2023-04-25T05:36:36.050Z,92080.00
2023-04-25T05:37:36.104Z,92084.00
2023-04-25T05:38:36.141Z,92082.00
2023-04-25T05:39:36.209Z,92084.00
2023-04-25T05:40:36.257Z,92082.00
2023-04-25T05:41:36.311Z,92086.00
2023-04-25T05:42:36.349Z,92086.00
2023-04-25T05:43:36.383Z,92090.00
2023-04-25T05:44:36.388Z,92092.00
2023-04-25T05:45:36.437Z,92090.00
2023-04-25T05:46:36.518Z,92086.00
2023-04-25T05:47:36.435Z,92086.00
2023-04-25T05:48:36.383Z,92080.00
2023-04-25T05:49:36.389Z,92080.00
2023-04-25T05:50:36.396Z,92078.00
2023-04-25T05:51:36.400Z,92080.00
2023-04-25T05:52:36.387Z,92082.00
2023-04-25T05:53:36.394Z,92082.00
2023-04-25T05:54:36.405Z,92082.00
2023-04-25T05:55:36.456Z,92084.00
2023-04-25T05:56:36.519Z,92082.00
2023-04-25T05:57:36.580Z,92076.00
2023-04-25T05:58:36.614Z,92074.00
2023-04-25T05:59:36.727Z,92078.00
2023-04-25T06:00:36.717Z,92078.00
2023-04-25T06:01:36.777Z,92084.00
2023-04-25T06:02:36.908Z,92082.00
2023-04-25T06:03:37.097Z,92082.00
2023-04-25T06:04:37.199Z,92086.00
2023-04-25T06:05:37.103Z,92084.00
2023-04-25T06:06:37.042Z,92084.00
2023-04-25T06:07:37.126Z,92084.00
2023-04-25T06:08:37.145Z,92084.00
2023-04-25T06:09:37.204Z,92082.00
2023-04-25T06:10:37.256Z,92080.00
2023-04-25T06:11:37.305Z,92076.00
2023-04-25T06:12:37.441Z,92078.00
2023-04-25T06:13:38.031Z,92080.00
2023-04-25T06:14:37.460Z,92078.00
2023-04-25T06:15:37.551Z,92078.00
2023-04-25T06:16:37.573Z,92080.00
2023-04-25T06:17:38.589Z,92080.00
2023-04-25T06:18:37.658Z,92078.00
2023-04-25T06:19:37.706Z,92074.00
2023-04-25T06:20:37.783Z,92076.00
2023-04-25T06:21:37.785Z,92067.00
2023-04-25T06:22:37.843Z,92067.00
2023-04-25T06:23:37.885Z,92063.00
2023-04-25T06:24:37.920Z,92063.00
2023-04-25T06:25:38.016Z,92059.00
2023-04-25T06:26:38.053Z,92055.00
2023-04-25T06:27:38.111Z,92051.00
2023-04-25T06:28:38.164Z,92045.00
2023-04-25T06:29:38.220Z,92043.00
2023-04-25T06:30:38.266Z,92045.00
2023-04-25T06:31:38.352Z,92043.00
2023-04-25T06:32:38.407Z,92043.00
2023-04-25T06:33:38.451Z,92045.00
2023-04-25T06:34:38.472Z,92043.00
2023-04-25T06:35:38.549Z,92043.00
2023-04-25T06:36:38.577Z,92043.00
2023-04-25T06:37:38.639Z,92041.00
2023-04-25T06:38:38.683Z,92043.00
2023-04-25T06:39:41.108Z,92043.00
2023-04-25T06:40:38.897Z,92041.00
2023-04-25T06:41:39.072Z,92037.00
2023-04-25T06:42:39.031Z,92039.00
2023-04-25T06:43:39.071Z,92037.00
2023-04-25T06:44:39.137Z,92034.00
2023-04-25T06:45:39.165Z,92034.00
2023-04-25T06:46:39.258Z,92036.00
2023-04-25T06:47:39.269Z,92036.00
2023-04-25T06:48:39.313Z,92036.00
2023-04-25T06:49:39.368Z,92037.00
2023-04-25T06:50:39.431Z,92036.00
2023-04-25T06:51:39.482Z,92037.00
2023-04-25T06:52:39.535Z,92037.00
2023-04-25T06:53:39.575Z,92039.00
2023-04-25T06:54:39.622Z,92043.00
2023-04-25T06:55:39.667Z,92041.00
2023-04-25T06:56:39.712Z,92041.00
2023-04-25T06:57:39.758Z,92039.00
2023-04-25T06:58:39.816Z,92034.00
2023-04-25T06:59:40.544Z,92032.00
2023-04-25T07:00:39.948Z,92030.00
2023-04-25T07:01:39.963Z,92028.00
2023-04-25T07:02:40.122Z,92026.00
2023-04-25T07:03:40.246Z,92026.00
2023-04-25T07:04:40.316Z,92032.00
2023-04-25T07:05:40.160Z,92030.00
2023-04-25T07:06:40.207Z,92028.00
2023-04-25T07:07:40.258Z,92030.00
2023-04-25T07:08:40.278Z,92030.00
2023-04-25T07:09:40.350Z,92030.00
2023-04-25T07:10:40.398Z,92032.00
2023-04-25T07:11:40.436Z,92032.00
2023-04-25T07:12:40.485Z,92032.00
2023-04-25T07:13:40.524Z,92032.00
2023-04-25T07:14:40.578Z,92028.00
2023-04-25T07:15:40.628Z,92030.00
2023-04-25T07:16:40.728Z,92032.00
2023-04-25T07:17:40.752Z,92030.00
2023-04-25T07:18:40.739Z,92034.00
2023-04-25T07:19:40.902Z,92034.00
2023-04-25T07:20:40.858Z,92036.00
2023-04-25T07:21:40.863Z,92041.00
2023-04-25T07:22:40.909Z,92039.00
2023-04-25T07:23:40.926Z,92037.00
2023-04-25T07:24:40.987Z,92036.00
2023-04-25T07:25:41.069Z,92034.00
2023-04-25T07:26:41.130Z,92026.00
2023-04-25T07:27:41.175Z,92022.00
2023-04-25T07:28:41.256Z,92030.00
2023-04-25T07:29:41.293Z,92026.00
2023-04-25T07:30:41.416Z,92026.00
2023-04-25T07:31:41.459Z,92028.00
2023-04-25T07:32:41.635Z,92028.00
2023-04-25T07:33:41.547Z,92028.00
2023-04-25T07:34:41.603Z,92032.00
2023-04-25T07:35:41.653Z,92026.00
2023-04-25T07:36:41.737Z,92028.00
2023-04-25T07:37:41.755Z,92024.00
2023-04-25T07:38:41.796Z,92026.00
2023-04-25T07:39:41.838Z,92026.00
2023-04-25T07:40:41.891Z,92018.00
2023-04-25T07:41:41.934Z,92014.00
2023-04-25T07:42:41.990Z,92014.00
2023-04-25T07:43:42.037Z,92020.00
2023-04-25T07:44:42.083Z,92020.00
2023-04-25T07:45:42.199Z,92022.00
2023-04-25T07:46:42.163Z,92020.00
2023-04-25T07:47:42.241Z,92014.00
2023-04-25T07:48:42.275Z,92016.00
2023-04-25T07:49:42.303Z,92012.00
2023-04-25T07:50:42.348Z,92016.00
2023-04-25T07:51:42.404Z,92016.00
2023-04-25T07:52:42.459Z,92016.00
2023-04-25T07:53:42.523Z,92020.00
2023-04-25T07:54:42.603Z,92022.00
2023-04-25T07:55:42.556Z,92020.00
2023-04-25T07:56:52.094Z,92022.00
2023-04-25T07:57:43.578Z,92018.00
2023-04-25T07:58:43.545Z,92014.00
2023-04-25T07:59:42.552Z,92012.00
2023-04-25T08:00:42.614Z,92010.00
2023-04-25T08:01:42.572Z,92012.00
2023-04-25T08:02:42.637Z,92010.00
2023-04-25T08:03:42.913Z,92008.00
2023-04-25T08:04:45.247Z,92010.00
2023-04-25T08:05:43.621Z,92006.00
2023-04-25T08:06:42.950Z,92006.00
2023-04-25T08:07:42.503Z,92004.00
2023-04-25T08:08:42.512Z,92000.00
2023-04-25T08:09:42.505Z,92004.00
2023-04-25T08:10:42.493Z,92002.00
2023-04-25T08:11:42.480Z,92002.00
2023-04-25T08:12:42.458Z,92002.00
2023-04-25T08:13:42.471Z,92004.00
2023-04-25T08:14:42.470Z,92004.00
2023-04-25T08:15:42.598Z,92004.00
2023-04-25T08:16:42.971Z,92004.00
2023-04-25T08:17:42.493Z,92004.00
2023-04-25T08:18:42.423Z,92006.00
2023-04-25T08:19:42.423Z,92004.00
2023-04-25T08:20:42.412Z,92002.00
2023-04-25T08:21:42.431Z,92002.00
2023-04-25T08:22:42.403Z,92000.00
2023-04-25T08:23:42.424Z,91998.00
2023-04-25T08:24:42.409Z,91998.00
2023-04-25T08:25:42.398Z,91994.00
2023-04-25T08:26:42.447Z,91994.00
2023-04-25T08:27:43.047Z,91990.00
2023-04-25T08:28:42.561Z,91989.00
2023-04-25T08:29:42.614Z,91989.00
2023-04-25T08:30:42.665Z,91992.00
2023-04-25T08:31:42.771Z,91989.00
2023-04-25T08:32:42.787Z,91987.00
2023-04-25T08:33:43.564Z,91981.00
2023-04-25T08:34:42.799Z,91979.00
2023-04-25T08:35:44.579Z,91977.00
2023-04-25T08:36:43.591Z,91977.00
2023-04-25T08:37:43.670Z,91973.00
2023-04-25T08:38:43.025Z,91977.00
2023-04-25T08:39:43.571Z,91973.00
2023-04-25T08:40:44.695Z,91979.00
2023-04-25T08:41:43.093Z,91975.00
2023-04-25T08:42:42.716Z,91975.00
2023-04-25T08:43:43.532Z,91977.00
2023-04-25T08:44:43.710Z,91981.00
2023-04-25T08:45:42.704Z,91967.00
2023-04-25T08:46:42.726Z,91969.00
2023-04-25T08:47:42.763Z,91965.00
2023-04-25T08:48:42.701Z,91967.00
2023-04-25T08:49:42.850Z,91967.00
2023-04-25T08:50:42.692Z,91967.00
2023-04-25T08:51:43.094Z,91969.00
2023-04-25T08:52:42.743Z,91963.00
2023-04-25T08:53:43.397Z,91967.00
2023-04-25T08:54:43.835Z,91969.00
2023-04-25T08:55:42.686Z,91967.00
2023-04-25T08:56:42.677Z,91969.00
2023-04-25T08:57:43.526Z,91969.00
2023-04-25T08:58:42.682Z,91967.00
2023-04-25T08:59:42.665Z,91963.00
2023-04-25T09:00:42.817Z,91967.00
2023-04-25T09:01:42.721Z,91967.00
2023-04-25T09:02:43.676Z,91963.00
2023-04-25T09:03:42.812Z,91965.00
2023-04-25T09:04:42.921Z,91959.00
2023-04-25T09:05:45.557Z,91967.00
2023-04-25T09:06:42.678Z,91963.00
2023-04-25T09:07:42.656Z,91965.00
2023-04-25T09:08:42.671Z,91967.00
2023-04-25T09:09:42.641Z,91965.00
2023-04-25T09:10:42.632Z,91971.00
2023-04-25T09:11:42.648Z,91973.00
2023-04-25T09:12:44.571Z,91975.00
2023-04-25T09:13:42.817Z,91967.00
2023-04-25T09:14:43.876Z,91969.00
2023-04-25T09:15:42.630Z,91973.00
2023-04-25T09:16:43.750Z,91977.00
2023-04-25T09:17:43.150Z,91985.00
2023-04-25T09:18:48.485Z,91985.00
2023-04-25T09:19:43.602Z,91985.00
2023-04-25T09:21:43.597Z,91983.00
2023-04-25T09:22:42.611Z,91979.00
2023-04-25T09:23:42.590Z,91983.00
2023-04-25T09:24:42.621Z,91981.00
2023-04-25T09:25:42.576Z,91985.00
2023-04-25T09:26:42.554Z,91983.00
2023-04-25T09:27:42.553Z,91987.00
2023-04-25T09:28:43.523Z,91985.00
2023-04-25T09:29:42.542Z,91985.00
2023-04-25T09:30:42.521Z,91987.00
2023-04-25T09:31:42.544Z,91987.00
2023-04-25T09:32:44.122Z,91987.00
2023-04-25T09:33:42.538Z,91992.00
2023-04-25T09:34:44.106Z,91989.00
2023-04-25T09:35:42.486Z,91989.00
2023-04-25T09:36:42.478Z,91992.00
2023-04-25T09:37:42.535Z,91996.00
2023-04-25T09:38:42.474Z,91994.00
2023-04-25T09:39:42.483Z,91996.00
2023-04-25T09:40:43.452Z,91998.00
2023-04-25T09:41:43.448Z,92002.00
2023-04-25T09:42:42.435Z,92000.00
2023-04-25T09:43:42.461Z,92002.00
2023-04-25T09:44:42.436Z,92000.00
2023-04-25T09:45:42.439Z,92004.00
2023-04-25T09:46:42.456Z,92006.00
2023-04-25T09:47:42.473Z,92006.00
2023-04-25T09:48:42.451Z,92006.00
2023-04-25T09:49:42.417Z,92008.00
2023-04-25T09:50:42.394Z,92010.00
2023-04-25T09:51:46.159Z,92012.00
2023-04-25T09:52:42.569Z,92010.00
2023-04-25T09:53:42.558Z,92014.00
2023-04-25T09:54:42.573Z,92014.00
2023-04-25T09:55:43.508Z,92016.00
2023-04-25T09:56:43.584Z,92022.00
2023-04-25T09:57:42.553Z,92022.00
2023-04-25T09:58:42.580Z,92018.00
2023-04-25T09:59:42.557Z,92018.00
2023-04-25T10:00:42.620Z,92016.00
2023-04-25T10:01:42.737Z,92020.00
2023-04-25T10:02:42.589Z,92020.00
2023-04-25T10:03:42.632Z,92026.00
2023-04-25T10:04:42.553Z,92028.00
2023-04-25T10:05:42.497Z,92028.00
2023-04-25T10:06:43.056Z,92030.00
2023-04-25T10:07:42.590Z,92030.00
2023-04-25T10:08:44.276Z,92037.00
2023-04-25T10:09:42.476Z,92047.00
2023-04-25T10:10:42.481Z,92043.00
2023-04-25T10:11:42.475Z,92045.00
2023-04-25T10:12:42.454Z,92045.00
2023-04-25T10:13:43.010Z,92051.00
2023-04-25T10:14:42.462Z,92045.00
2023-04-25T10:15:42.486Z,92039.00
2023-04-25T10:16:42.582Z,92045.00
2023-04-25T10:17:42.447Z,92049.00
2023-04-25T10:18:42.438Z,92049.00
2023-04-25T10:19:42.435Z,92057.00
2023-04-25T10:20:42.426Z,92049.00
2023-04-25T10:21:42.415Z,92055.00
2023-04-25T10:22:42.419Z,92055.00
2023-04-25T10:23:42.410Z,92053.00
2023-04-25T10:24:42.412Z,92057.00
2023-04-25T10:25:42.401Z,92059.00
2023-04-25T10:26:42.404Z,92053.00
2023-04-25T10:27:42.387Z,92053.00
2023-04-25T10:28:42.394Z,92053.00
2023-04-25T10:29:42.392Z,92057.00
2023-04-25T10:30:42.428Z,92055.00
2023-04-25T10:31:42.577Z,92051.00
2023-04-25T10:32:42.462Z,92057.00
2023-04-25T10:33:42.476Z,92063.00
2023-04-25T10:34:42.498Z,92074.00
2023-04-25T10:35:42.490Z,92076.00
2023-04-25T10:36:42.517Z,92080.00
2023-04-25T10:37:42.535Z,92080.00
2023-04-25T10:38:42.603Z,92084.00
2023-04-25T10:39:42.637Z,92084.00
2023-04-25T10:40:42.611Z,92080.00
2023-04-25T10:41:43.470Z,92088.00
2023-04-25T10:42:42.695Z,92086.00
2023-04-25T10:43:42.680Z,92090.00
2023-04-25T10:44:42.703Z,92088.00
2023-04-25T10:45:42.727Z,92092.00
2023-04-25T10:46:42.796Z,92092.00
2023-04-25T10:47:42.823Z,92094.00
2023-04-25T10:48:42.809Z,92092.00
2023-04-25T10:49:42.841Z,92096.00
2023-04-25T10:50:42.852Z,92100.00
2023-04-25T10:51:55.014Z,92096.00
2023-04-25T10:52:43.874Z,92094.00
2023-04-25T10:53:42.877Z,92092.00
2023-04-25T10:54:43.510Z,92084.00
2023-04-25T10:55:45.651Z,92086.00
2023-04-25T10:56:42.919Z,92086.00
2023-04-25T10:57:42.866Z,92080.00
2023-04-25T10:58:43.030Z,92076.00
2023-04-25T10:59:43.059Z,92074.00
2023-04-25T11:00:48.272Z,92065.00
2023-04-25T11:01:43.884Z,92055.00
2023-04-25T11:02:42.982Z,92049.00
2023-04-25T11:03:42.936Z,92051.00
2023-04-25T11:04:43.148Z,92053.00
2023-04-25T11:05:55.122Z,92051.00
2023-04-25T11:06:43.820Z,92049.00
2023-04-25T11:07:43.202Z,92049.00
2023-04-25T11:08:42.808Z,92045.00
2023-04-25T11:09:42.829Z,92047.00
2023-04-25T11:10:42.797Z,92043.00
2023-04-25T11:11:42.830Z,92039.00
2023-04-25T11:12:42.804Z,92036.00
2023-04-25T11:13:42.804Z,92045.00
2023-04-25T11:14:42.792Z,92045.00
2023-04-25T11:15:42.794Z,92037.00
2023-04-25T11:16:42.835Z,92039.00
2023-04-25T11:17:42.863Z,92039.00
2023-04-25T11:18:42.772Z,92045.00
2023-04-25T11:19:42.795Z,92037.00
2023-04-25T11:20:42.751Z,92043.00
2023-04-25T11:21:42.740Z,92041.00
2023-04-25T11:22:42.763Z,92043.00
2023-04-25T11:23:42.735Z,92043.00
2023-04-25T11:24:42.723Z,92041.00
2023-04-25T11:25:42.718Z,92037.00
2023-04-25T11:26:42.693Z,92047.00
2023-04-25T11:27:42.686Z,92051.00
2023-04-25T11:28:42.688Z,92053.00
2023-04-25T11:29:42.744Z,92047.00
2023-04-25T11:30:42.679Z,92045.00
2023-04-25T11:31:42.743Z,92037.00
2023-04-25T11:32:42.741Z,92045.00
2023-04-25T11:33:42.707Z,92043.00
2023-04-25T11:34:42.732Z,92045.00
2023-04-25T11:35:42.807Z,92057.00
2023-04-25T11:36:42.747Z,92055.00
2023-04-25T11:37:42.756Z,92059.00
2023-04-25T11:38:42.782Z,92059.00
2023-04-25T11:39:42.812Z,92076.00
2023-04-25T11:40:42.840Z,92074.00
2023-04-25T11:41:42.873Z,92086.00
2023-04-25T11:42:42.817Z,92100.00
2023-04-25T11:43:43.593Z,92098.00
2023-04-25T11:44:42.838Z,92104.00
2023-04-25T11:45:42.910Z,92100.00